EDT,Max TemperatureF,Mean TemperatureF,Min TemperatureF,Max Dew PointF,MeanDew PointF,Min DewpointF,Max Humidity, Mean Humidity, Min Humidity, Max Sea Level PressureIn, Mean Sea Level PressureIn, Min Sea Level PressureIn, Max VisibilityMiles, Mean VisibilityMiles, Min VisibilityMiles, Max Wind SpeedMPH, Mean Wind SpeedMPH, Max Gust SpeedMPH,PrecipitationIn, CloudCover, Events, WindDirDegrees
2013-10-1,71,56,40,55,45,39,100,75,49,30.08,30.02,29.94,10,4,0,13,2,16,0.00,4,Fog,255
2013-10-2,73,59,45,57,50,46,100,77,53,30.02,29.93,29.88,10,5,0,15,3,25,0.00,2,Fog,290
2013-10-3,69,56,42,48,45,41,93,67,40,30.15,30.10,30.03,10,10,10,10,3,16,0.00,0,,306
2013-10-4,62,51,40,53,45,39,100,83,65,30.18,30.14,30.11,10,5,0,5,1,6,0.02,6,Fog-Rain,7
2013-10-5,60,54,48,51,47,42,89,71,53,30.22,30.17,30.13,10,10,10,6,1,8,0.02,7,,348
2013-10-6,55,51,47,48,44,41,100,83,66,30.24,30.20,30.14,10,7,2,16,7,23,0.31,8,Rain,178
2013-10-7,66,58,50,63,55,44,100,86,71,30.13,29.88,29.67,10,8,1,28,11,41,0.73,8,Rain,194
2013-10-8,55,45,34,43,37,33,92,68,43,30.46,30.25,29.94,10,10,10,18,6,24,0.00,2,,301
2013-10-9,62,46,30,41,33,29,100,66,32,30.55,30.48,30.42,10,5,0,15,2,20,0.00,3,Fog,172
2013-10-10,64,48,31,46,36,30,100,68,36,30.42,30.35,30.25,10,6,0,6,1,7,0.00,2,Fog,110
2013-10-11,70,55,40,46,41,34,100,63,26,30.26,30.23,30.19,10,10,10,6,1,7,0.00,0,,186
2013-10-12,68,53,37,51,45,36,100,78,56,30.43,30.36,30.27,10,10,10,14,5,18,0.00,2,,189
2013-10-13,63,52,40,46,44,40,96,72,48,30.47,30.43,30.38,10,10,10,16,6,21,0.00,1,,170
2013-10-14,54,50,45,54,51,43,100,93,86,30.40,30.33,30.28,10,4,0,13,2,16,0.12,8,Fog-Rain,162
2013-10-15,62,56,49,54,52,49,100,86,72,30.34,30.27,30.18,10,6,0,13,4,17,0.00,8,Fog,174
2013-10-16,62,56,50,51,48,46,93,79,64,30.17,30.05,29.89,10,10,10,16,8,22,0.01,4,Rain,174
2013-10-17,63,55,47,52,48,43,100,78,55,29.88,29.84,29.75,10,10,3,12,4,20,0.19,5,Rain,228
2013-10-18,59,52,44,50,46,32,100,75,50,29.93,29.73,29.65,10,6,1,15,5,23,0.49,7,Rain,264
2013-10-19,60,48,36,44,39,34,100,73,46,29.96,29.88,29.72,10,10,7,15,5,17,0.05,3,Rain,184
2013-10-20,53,48,42,45,36,30,93,69,44,30.04,29.83,29.66,10,10,2,17,7,25,0.15,5,Rain,253
2013-10-21,60,46,32,40,36,31,92,68,44,30.12,30.04,29.93,10,10,10,18,5,23,0.00,3,,178
2013-10-22,54,44,34,48,37,26,86,70,53,29.91,29.81,29.72,10,10,10,18,7,26,0.02,3,Rain,210
2013-10-23,49,40,30,35,29,27,92,69,45,29.81,29.74,29.67,10,10,10,12,3,15,T,5,Rain,298
2013-10-24,43,35,27,34,30,22,100,77,53,29.91,29.78,29.69,10,9,4,20,7,29,0.16,4,Rain-Snow,263
2013-10-25,39,34,29,32,29,24,92,76,59,30.17,30.03,29.91,10,8,1,15,5,21,0.02,7,Snow,292
2013-10-26,44,36,27,34,30,24,92,69,45,30.16,29.99,29.86,10,10,10,16,6,22,0.03,7,Rain,182
2013-10-27,45,39,33,36,30,25,85,67,49,30.06,29.90,29.78,10,10,8,16,7,24,0.01,6,Rain,252
2013-10-28,45,34,23,36,27,19,85,68,50,30.43,30.19,30.05,10,10,5,21,7,32,0.03,5,Rain,267
2013-10-29,41,29,16,25,19,15,96,70,44,30.53,30.46,30.41,10,9,0,8,1,12,0.00,1,Fog,276
2013-10-30,41,33,24,31,26,18,92,78,64,30.39,30.30,30.25,10,10,9,6,1,8,T,7,,144
2013-10-31,55,41,27,53,41,26,100,91,82,30.28,30.00,29.70,10,8,3,17,6,21,0.44,7,Rain,187